createdAt,value
2017-09-08T00:00:28.120Z,98593.23
2017-09-08T00:03:00.048Z,98587.50
2017-09-08T00:05:31.523Z,98577.49
2017-09-08T00:08:03.696Z,98584.09
2017-09-08T00:10:35.584Z,98588.36
2017-09-08T00:13:07.322Z,98583.84
2017-09-08T00:15:39.018Z,98577.49
2017-09-08T00:18:13.146Z,98578.45
2017-09-08T00:20:44.650Z,98573.00
2017-09-08T00:23:16.419Z,98559.09
2017-09-08T00:25:47.870Z,98564.05
2017-09-08T00:28:19.865Z,98559.34
2017-09-08T00:30:51.593Z,98558.14
2017-09-08T00:33:23.417Z,98554.29
2017-09-08T00:35:55.137Z,98547.39
2017-09-08T00:38:26.747Z,98518.12
2017-09-08T00:40:58.816Z,98541.71
2017-09-08T00:43:30.897Z,98532.03
2017-09-08T00:46:02.657Z,98534.79
2017-09-08T00:48:34.621Z,98531.19
2017-09-08T00:51:06.489Z,98524.66
2017-09-08T00:53:38.515Z,98530.07
2017-09-08T00:56:11.920Z,98525.76
2017-09-08T00:58:43.595Z,98518.22
2017-09-08T01:01:16.773Z,98492.79
2017-09-08T01:03:48.456Z,98511.41
2017-09-08T01:06:19.742Z,98516.13
2017-09-08T01:08:51.417Z,98512.31
2017-09-08T01:11:23.123Z,98497.58
2017-09-08T01:13:55.030Z,98509.48
2017-09-08T01:16:26.766Z,98497.03
2017-09-08T01:18:58.637Z,98472.10
2017-09-08T01:21:30.608Z,98506.80
2017-09-08T01:24:04.120Z,98512.84
2017-09-08T01:26:36.100Z,98444.56
2017-09-08T01:29:08.514Z,98503.94
2017-09-08T01:31:40.920Z,98499.94
2017-09-08T01:34:12.764Z,98503.97
2017-09-08T01:36:44.482Z,98505.66
2017-09-08T01:39:17.505Z,98453.46
2017-09-08T01:41:49.070Z,98496.55
2017-09-08T01:44:21.000Z,98487.42
2017-09-08T01:46:52.641Z,98469.00
2017-09-08T01:49:24.473Z,98532.96
2017-09-08T01:51:56.014Z,98489.00
2017-09-08T01:54:27.897Z,98486.50
2017-09-08T01:56:59.170Z,98487.44
2017-09-08T01:59:30.838Z,98485.00
2017-09-08T02:02:02.571Z,98477.67
2017-09-08T02:04:34.290Z,98472.59
2017-09-08T02:07:06.262Z,98470.07
2017-09-08T02:09:37.953Z,98465.75
2017-09-08T02:12:11.512Z,98460.98
2017-09-08T02:14:45.015Z,98461.70
2017-09-08T02:17:18.131Z,98466.88
2017-09-08T02:19:50.085Z,98442.51
2017-09-08T02:22:21.626Z,98462.72
2017-09-08T02:24:53.363Z,98463.39
2017-09-08T02:27:25.474Z,98457.66
2017-09-08T02:29:57.471Z,98461.02
2017-09-08T02:32:29.490Z,98453.13
2017-09-08T02:35:01.248Z,98454.61
2017-09-08T02:37:32.933Z,98446.76
2017-09-08T02:40:04.711Z,98438.46
2017-09-08T02:42:37.019Z,98435.56
2017-09-08T02:45:11.369Z,98413.93
2017-09-08T02:47:43.238Z,98443.23
2017-09-08T02:50:18.113Z,98396.70
2017-09-08T02:52:50.076Z,98430.30
2017-09-08T02:55:21.566Z,98430.09
2017-09-08T02:57:52.986Z,98428.48
2017-09-08T03:00:24.613Z,98427.77
2017-09-08T03:02:56.287Z,98403.94
2017-09-08T03:05:27.955Z,98426.55
2017-09-08T03:07:59.999Z,98425.76
2017-09-08T03:10:31.644Z,98420.91
2017-09-08T03:13:03.479Z,98460.03
2017-09-08T03:15:35.528Z,98410.56
2017-09-08T03:18:07.372Z,98408.83
2017-09-08T03:20:39.585Z,98404.25
2017-09-08T03:23:14.297Z,98404.25
2017-09-08T03:25:46.020Z,98401.83
2017-09-08T03:28:17.947Z,98398.76
2017-09-08T03:30:49.698Z,98397.15
2017-09-08T03:33:21.542Z,98375.38
2017-09-08T03:35:53.355Z,98382.39
2017-09-08T03:38:25.137Z,98382.04
2017-09-08T03:40:57.321Z,98356.90
2017-09-08T03:43:28.717Z,98377.06
2017-09-08T03:46:00.517Z,98329.38
2017-09-08T03:48:32.897Z,98282.98
2017-09-08T03:51:04.640Z,98371.86
2017-09-08T03:53:36.471Z,98367.63
2017-09-08T03:56:07.752Z,98399.05
2017-09-08T03:58:38.934Z,98314.75
2017-09-08T04:01:13.305Z,98378.37
2017-09-08T04:03:44.808Z,98374.22
2017-09-08T04:06:17.269Z,98318.31
2017-09-08T04:08:48.798Z,98380.83
2017-09-08T04:11:20.623Z,98368.69
2017-09-08T04:13:52.288Z,98369.56
2017-09-08T04:16:23.971Z,98361.42
2017-09-08T04:18:55.904Z,98316.19
2017-09-08T04:21:27.601Z,98359.00
2017-09-08T04:23:59.061Z,98351.53
2017-09-08T04:26:30.647Z,98351.92
2017-09-08T04:29:02.272Z,98336.97
2017-09-08T04:31:34.779Z,98340.73
2017-09-08T04:34:05.891Z,98338.70
2017-09-08T04:36:37.398Z,98324.11
2017-09-08T04:39:08.739Z,98331.76
2017-09-08T04:41:41.732Z,98311.08
2017-09-08T04:44:15.398Z,98328.42
2017-09-08T04:46:47.317Z,98332.61
2017-09-08T04:49:19.317Z,98327.47
2017-09-08T04:51:50.886Z,98337.98
2017-09-08T04:54:22.870Z,98336.76
2017-09-08T04:56:54.498Z,98339.09
2017-09-08T04:59:26.284Z,98338.30
2017-09-08T05:01:58.034Z,98342.69
2017-09-08T05:04:30.442Z,98337.91
2017-09-08T05:07:02.754Z,98318.70
2017-09-08T05:09:36.129Z,98340.13
2017-09-08T05:12:07.506Z,98316.55
2017-09-08T05:14:40.001Z,98302.43
2017-09-08T05:17:11.741Z,98237.75
2017-09-08T05:19:43.454Z,98318.53
2017-09-08T05:22:18.138Z,98304.60
2017-09-08T05:24:53.999Z,98292.74
2017-09-08T05:27:25.096Z,98297.58
2017-09-08T05:29:56.900Z,98297.31
2017-09-08T05:32:29.562Z,98297.73
2017-09-08T05:35:01.254Z,98289.28
2017-09-08T05:37:34.003Z,98295.16
2017-09-08T05:40:06.922Z,98195.08
2017-09-08T05:42:38.220Z,98290.99
2017-09-08T05:45:11.054Z,98270.72
2017-09-08T05:47:42.549Z,98301.02
2017-09-08T05:50:25.135Z,98295.30
2017-09-08T05:52:56.861Z,98297.53
2017-09-08T05:55:28.102Z,98296.42
2017-09-08T05:57:59.099Z,98308.83
2017-09-08T06:00:31.701Z,98300.43
2017-09-08T06:03:02.825Z,98306.36
2017-09-08T06:05:35.760Z,98284.50
2017-09-08T06:08:08.442Z,98298.53
2017-09-08T06:10:40.706Z,98382.71
2017-09-08T06:13:13.750Z,98334.72
2017-09-08T06:15:46.073Z,98227.73
2017-09-08T06:18:17.903Z,98291.00
2017-09-08T06:20:49.330Z,98298.47
2017-09-08T06:23:20.681Z,98302.14
2017-09-08T06:25:54.491Z,98309.48
2017-09-08T06:28:25.671Z,98296.58
2017-09-08T06:30:56.957Z,98235.95
2017-09-08T06:33:30.589Z,98288.82
2017-09-08T06:36:03.507Z,98280.20
2017-09-08T06:38:35.009Z,98276.16
2017-09-08T06:41:07.103Z,98279.47
2017-09-08T06:43:38.423Z,98274.27
2017-09-08T06:46:14.638Z,98176.21
2017-09-08T06:48:46.483Z,98264.55
2017-09-08T06:51:19.608Z,98135.41
2017-09-08T06:53:51.738Z,98260.82
2017-09-08T06:56:23.252Z,98253.54
2017-09-08T06:58:56.163Z,98246.03
2017-09-08T07:01:28.080Z,98249.91
2017-09-08T07:04:00.062Z,98245.14
2017-09-08T07:06:31.682Z,98239.17
2017-09-08T07:09:03.104Z,98235.53
2017-09-08T07:11:34.854Z,98232.66
2017-09-08T07:14:10.914Z,98232.84
2017-09-08T07:16:43.466Z,98237.09
2017-09-08T07:19:23.309Z,98236.14
2017-09-08T07:21:57.094Z,98241.36
2017-09-08T07:24:31.336Z,98229.26
2017-09-08T07:27:08.737Z,98210.34
2017-09-08T07:29:45.103Z,98222.38
2017-09-08T07:32:17.484Z,98222.42
2017-09-08T07:34:49.819Z,98221.19
2017-09-08T07:37:21.572Z,98170.94
2017-09-08T07:39:53.319Z,98259.00
2017-09-08T07:42:27.991Z,98211.34
2017-09-08T07:45:00.892Z,98202.72
2017-09-08T07:47:36.890Z,98208.70
2017-09-08T07:50:08.126Z,98197.00
2017-09-08T07:52:39.950Z,98200.25
2017-09-08T07:55:14.597Z,98201.81
2017-09-08T07:57:46.880Z,98210.66
2017-09-08T08:00:18.804Z,98202.43
2017-09-08T08:02:50.793Z,98208.76
2017-09-08T08:05:22.446Z,98276.91
2017-09-08T08:07:53.767Z,98203.61
2017-09-08T08:10:25.340Z,98195.93
2017-09-08T08:12:56.455Z,98186.92
2017-09-08T08:15:28.362Z,98181.73
2017-09-08T08:17:59.637Z,98181.56
2017-09-08T08:20:31.799Z,98186.55
2017-09-08T08:23:04.066Z,98188.84
2017-09-08T08:25:35.766Z,98184.30
2017-09-08T08:28:07.414Z,98181.61
2017-09-08T08:30:39.764Z,98160.33
2017-09-08T08:33:12.538Z,98187.06
2017-09-08T08:35:44.624Z,98177.46
2017-09-08T08:38:18.111Z,98205.30
2017-09-08T08:40:50.514Z,98182.05
2017-09-08T08:43:25.281Z,98189.75
2017-09-08T08:45:57.386Z,98188.23
2017-09-08T08:48:30.875Z,98187.11
2017-09-08T08:51:02.394Z,98183.25
2017-09-08T08:53:34.072Z,98187.84
2017-09-08T08:56:07.417Z,98173.79
2017-09-08T08:58:38.666Z,98155.73
2017-09-08T09:01:11.732Z,98186.50
2017-09-08T09:03:43.310Z,98183.64
2017-09-08T09:06:16.887Z,98185.94
2017-09-08T09:08:51.278Z,98155.28
2017-09-08T09:11:23.107Z,98169.40
2017-09-08T09:13:55.145Z,98155.09
2017-09-08T09:16:27.305Z,98174.06
2017-09-08T09:18:59.043Z,98170.98
2017-09-08T09:21:30.551Z,98220.50
2017-09-08T09:24:02.597Z,98170.77
2017-09-08T09:26:34.096Z,98170.03
2017-09-08T09:29:05.593Z,98137.25
2017-09-08T09:31:37.088Z,98157.71
2017-09-08T09:34:08.316Z,98097.70
2017-09-08T09:36:41.230Z,98137.89
2017-09-08T09:39:15.249Z,98138.55
2017-09-08T09:41:46.346Z,98137.03
2017-09-08T09:44:18.406Z,98134.59
2017-09-08T09:46:49.478Z,98129.21
2017-09-08T09:49:21.234Z,98056.67
2017-09-08T09:51:52.358Z,98124.05
2017-09-08T09:54:23.836Z,98104.61
2017-09-08T09:56:55.481Z,98118.84
2017-09-08T09:59:26.626Z,98110.22
2017-09-08T10:01:58.047Z,98110.22
2017-09-08T10:04:29.996Z,98083.27
2017-09-08T10:07:01.294Z,98105.06
2017-09-08T10:09:33.818Z,98082.93
2017-09-08T10:12:05.176Z,98097.05
2017-09-08T10:14:40.168Z,98078.90
2017-09-08T10:17:14.825Z,98066.64
2017-09-08T10:19:46.510Z,98083.23
2017-09-08T10:22:18.314Z,98063.20
2017-09-08T10:24:49.504Z,98086.68
2017-09-08T10:27:21.310Z,98046.19
2017-09-08T10:29:53.297Z,98069.55
2017-09-08T10:32:24.786Z,98091.11
2017-09-08T10:34:59.667Z,98073.81
2017-09-08T10:37:31.019Z,98073.86
2017-09-08T10:40:03.884Z,98046.69
2017-09-08T10:42:36.818Z,98045.40
2017-09-08T10:45:11.853Z,98077.55
2017-09-08T10:47:44.903Z,98083.55
2017-09-08T10:50:20.038Z,98075.30
2017-09-08T10:52:51.920Z,98073.00
2017-09-08T10:55:23.095Z,98084.11
2017-09-08T10:57:55.948Z,98055.37
2017-09-08T11:00:27.066Z,98040.30
2017-09-08T11:02:58.115Z,98063.15
2017-09-08T11:05:29.828Z,98087.97
2017-09-08T11:08:01.833Z,98090.83
2017-09-08T11:10:33.003Z,98044.39
2017-09-08T11:13:04.252Z,98064.45
2017-09-08T11:15:37.580Z,98082.94
2017-09-08T11:18:11.144Z,98049.55
2017-09-08T11:20:42.973Z,98064.62
2017-09-08T11:23:15.007Z,98081.59
2017-09-08T11:25:47.622Z,98052.69
2017-09-08T11:28:19.745Z,98043.27
2017-09-08T11:30:51.767Z,98025.86
2017-09-08T11:33:28.542Z,98071.12
2017-09-08T11:38:07.604Z,98065.35
2017-09-08T11:40:39.034Z,98075.42
2017-09-08T11:43:10.728Z,98116.88
2017-09-08T11:45:42.037Z,98075.14
2017-09-08T11:48:13.918Z,98075.94
2017-09-08T11:50:45.168Z,98075.94
2017-09-08T11:53:18.724Z,98061.38
2017-09-08T11:55:50.906Z,98065.41
2017-09-08T11:58:23.228Z,98058.30
2017-09-08T12:00:55.010Z,98055.83
2017-09-08T12:03:26.652Z,98060.86
2017-09-08T12:06:07.906Z,98065.45
2017-09-08T12:08:41.657Z,98035.27
2017-09-08T12:11:15.136Z,98093.34
2017-09-08T12:13:49.661Z,98014.67
2017-09-08T12:16:21.630Z,98046.11
2017-09-08T12:18:53.636Z,98050.15
2017-09-08T12:21:26.730Z,98025.88
2017-09-08T12:23:58.794Z,98041.87
2017-09-08T12:26:32.647Z,98032.30
2017-09-08T12:29:06.136Z,98025.96
2017-09-08T12:31:37.616Z,98004.02
2017-09-08T12:34:09.775Z,98019.23
2017-09-08T12:36:42.448Z,98017.33
2017-09-08T12:39:17.038Z,98011.78
2017-09-08T12:41:52.239Z,97906.16
2017-09-08T12:44:23.835Z,97995.66
2017-09-08T12:46:55.274Z,98004.32
2017-09-08T12:49:28.581Z,97984.11
2017-09-08T12:52:01.009Z,97983.72
2017-09-08T12:54:35.072Z,97998.77
2017-09-08T12:57:08.289Z,97988.02
2017-09-08T12:59:41.185Z,97997.44
2017-09-08T13:02:16.911Z,97995.14
2017-09-08T13:04:53.084Z,97982.22
2017-09-08T13:07:25.191Z,98004.36
2017-09-08T13:09:56.297Z,97951.25
2017-09-08T13:12:28.154Z,97989.58
2017-09-08T13:14:59.221Z,97978.81
2017-09-08T13:17:31.547Z,97959.18
2017-09-08T13:20:03.274Z,97979.77
2017-09-08T13:22:34.410Z,97976.13
2017-09-08T13:25:05.071Z,97976.13
2017-09-08T13:27:36.554Z,97974.78
2017-09-08T13:30:16.662Z,97973.83
2017-09-08T13:32:55.887Z,97965.00
2017-09-08T13:35:28.174Z,97968.29
2017-09-08T13:38:00.578Z,97991.89
2017-09-08T13:40:35.580Z,97963.26
2017-09-08T13:45:53.122Z,97962.87
2017-09-08T13:48:24.854Z,97967.86
2017-09-08T13:50:57.280Z,97887.69
2017-09-08T13:53:29.197Z,97965.94
2017-09-08T13:56:05.236Z,97957.83
2017-09-08T13:58:50.856Z,97956.70
2017-09-08T14:01:22.842Z,97959.95
2017-09-08T14:03:54.831Z,97933.94
2017-09-08T14:06:26.371Z,97957.61
2017-09-08T14:08:59.072Z,97958.56
2017-09-08T14:11:30.867Z,97996.99
2017-09-08T14:14:02.847Z,97955.31
2017-09-08T14:16:34.075Z,97966.23
2017-09-08T14:19:06.124Z,97920.42
2017-09-08T14:21:38.192Z,97945.08
2017-09-08T14:24:09.741Z,97903.30
2017-09-08T14:26:42.382Z,97955.27
2017-09-08T14:29:14.557Z,97966.59
2017-09-08T14:31:45.895Z,97908.11
2017-09-08T14:34:18.318Z,97805.83
2017-09-08T14:36:51.380Z,97936.83
2017-09-08T14:39:25.086Z,97934.70
2017-09-08T14:41:57.080Z,97938.73
2017-09-08T14:44:28.429Z,97916.64
2017-09-08T14:47:00.639Z,97912.95
2017-09-08T14:49:32.415Z,97932.22
2017-09-08T14:52:04.470Z,97924.52
2017-09-08T14:54:35.982Z,97898.76
2017-09-08T14:57:07.578Z,97878.34
2017-09-08T14:59:39.755Z,97915.69
2017-09-08T15:02:13.312Z,97904.73
2017-09-08T15:04:45.014Z,97896.28
2017-09-08T15:07:18.909Z,97810.73
2017-09-08T15:09:51.675Z,97901.66
2017-09-08T15:12:28.402Z,97900.53
2017-09-08T15:15:01.089Z,97903.55
2017-09-08T15:17:39.220Z,97894.43
2017-09-08T15:20:16.272Z,97863.28
2017-09-08T15:22:47.932Z,97895.19
2017-09-08T15:25:23.955Z,97852.13
2017-09-08T15:27:56.229Z,97885.44
2017-09-08T15:30:28.365Z,97887.52
2017-09-08T15:33:33.943Z,97856.75
2017-09-08T15:36:23.852Z,97878.23
2017-09-08T15:44:22.442Z,97861.32
2017-09-08T15:47:15.305Z,97782.84
2017-09-08T15:53:15.844Z,97878.85
2017-09-08T15:55:49.095Z,97885.91
2017-09-08T16:03:32.186Z,97807.77
2017-09-08T16:06:04.488Z,97865.74
2017-09-08T16:08:36.886Z,97884.19
2017-09-08T16:11:08.409Z,97882.39
2017-09-08T16:13:40.538Z,97888.99
2017-09-08T16:16:14.791Z,97866.88
2017-09-08T16:18:46.117Z,97880.53
2017-09-08T16:21:17.530Z,97801.84
2017-09-08T16:23:48.751Z,97851.87
2017-09-08T16:26:21.735Z,97869.77
2017-09-08T16:28:54.351Z,97843.60
2017-09-08T16:31:27.481Z,97873.97
2017-09-08T16:33:59.190Z,97867.81
2017-09-08T16:36:31.783Z,97869.73
2017-09-08T16:39:03.786Z,97844.55
2017-09-08T16:41:35.073Z,97855.89
2017-09-08T16:44:07.210Z,97857.63
2017-09-08T16:46:39.660Z,97861.83
2017-09-08T16:49:31.238Z,97787.77
2017-09-08T16:52:57.636Z,97819.31
2017-09-08T16:55:58.816Z,97862.57
2017-09-08T16:58:43.431Z,97789.38
2017-09-08T17:04:22.758Z,97743.88
2017-09-08T17:14:38.011Z,97794.05
2017-09-08T17:28:01.818Z,97689.72
2017-09-08T18:20:14.085Z,97713.14
2017-09-08T18:22:49.518Z,97721.66
2017-09-08T18:25:20.991Z,97784.02
2017-09-08T18:27:52.618Z,97786.92
2017-09-08T18:30:23.809Z,97770.78
2017-09-08T18:32:55.763Z,97780.06
2017-09-08T18:35:27.921Z,97783.32
2017-09-08T18:37:59.399Z,97784.11
2017-09-08T18:40:30.597Z,97782.20
2017-09-08T18:43:01.968Z,97781.42
2017-09-08T18:45:34.977Z,97778.56
2017-09-08T18:48:06.885Z,97776.30
2017-09-08T18:50:38.208Z,97756.32
2017-09-08T18:53:12.632Z,97771.09
2017-09-08T18:55:44.630Z,97774.27
2017-09-08T18:58:15.747Z,97763.64
2017-09-08T19:00:47.160Z,97743.95
2017-09-08T19:03:20.187Z,97758.40
2017-09-08T19:05:51.346Z,97765.72
2017-09-08T19:08:22.984Z,97773.22
2017-09-08T19:10:55.160Z,97725.72
2017-09-08T19:13:26.710Z,97756.70
2017-09-08T19:15:59.118Z,97762.64
2017-09-08T19:18:31.691Z,97736.16
2017-09-08T19:21:03.303Z,97736.75
2017-09-08T19:23:35.806Z,97760.18
2017-09-08T19:26:07.600Z,97753.27
2017-09-08T19:28:38.726Z,97733.85
2017-09-08T19:31:09.857Z,97709.03
2017-09-08T19:33:41.505Z,97721.16
2017-09-08T19:36:15.947Z,97717.16
2017-09-08T19:38:47.352Z,97703.90
2017-09-08T19:41:19.393Z,97735.16
2017-09-08T19:43:51.443Z,97687.83
2017-09-08T19:46:24.207Z,97726.78
2017-09-08T19:48:56.347Z,97673.02
2017-09-08T19:51:27.955Z,97722.77
2017-09-08T19:53:59.175Z,97740.19
2017-09-08T19:56:30.653Z,97715.27
2017-09-08T19:59:02.138Z,97713.73
2017-09-08T20:01:33.369Z,97713.14
2017-09-08T20:04:04.962Z,97721.37
2017-09-08T20:06:37.136Z,97667.59
2017-09-08T20:09:08.985Z,97696.22
2017-09-08T20:11:40.641Z,97695.48
2017-09-08T20:14:12.126Z,97691.80
2017-09-08T20:16:44.089Z,97689.68
2017-09-08T20:19:18.897Z,97660.52
2017-09-08T20:21:51.463Z,97669.73
2017-09-08T20:24:22.664Z,97704.64
2017-09-08T20:26:54.645Z,97660.47
2017-09-08T20:29:25.735Z,97638.00
2017-09-08T20:31:57.080Z,97668.39
2017-09-08T20:34:29.355Z,97671.08
2017-09-08T20:37:00.746Z,97670.30
2017-09-08T20:39:32.393Z,97667.61
2017-09-08T20:42:04.565Z,97676.84
2017-09-08T20:44:35.765Z,97667.22
2017-09-08T20:47:07.089Z,97676.23
2017-09-08T20:49:38.171Z,97652.80
2017-09-08T20:52:09.354Z,97678.15
2017-09-08T20:54:41.076Z,97677.20
2017-09-08T20:57:14.983Z,97657.08
2017-09-08T20:59:46.621Z,97674.89
2017-09-08T21:02:18.061Z,97656.70
2017-09-08T21:04:49.793Z,97677.94
2017-09-08T21:07:21.787Z,97654.53
2017-09-08T21:09:54.506Z,97677.37
2017-09-08T21:12:28.312Z,97669.52
2017-09-08T21:15:00.240Z,97670.69
2017-09-08T21:17:31.696Z,97658.77
2017-09-08T21:20:04.402Z,97656.64
2017-09-08T21:22:35.857Z,97680.66
2017-09-08T21:25:07.563Z,97640.38
2017-09-08T21:27:39.052Z,97636.91
2017-09-08T21:30:13.640Z,97624.98
2017-09-08T21:32:44.807Z,97617.53
2017-09-08T21:35:17.119Z,97541.70
2017-09-08T21:37:48.969Z,97632.10
2017-09-08T21:40:20.832Z,97614.08
2017-09-08T21:42:52.384Z,97632.10
2017-09-08T21:45:24.363Z,97625.34
2017-09-08T21:47:55.557Z,97619.58
2017-09-08T21:50:27.889Z,97611.91
2017-09-08T21:52:59.938Z,97602.30
2017-09-08T21:55:31.099Z,97621.09
2017-09-08T21:58:03.538Z,97614.55
2017-09-08T22:00:35.989Z,97628.31
2017-09-08T22:05:47.051Z,97597.73
2017-09-08T22:51:09.031Z,97573.02
2017-09-08T22:53:41.069Z,97576.84
2017-09-08T22:56:14.848Z,97569.98
2017-09-08T22:58:46.210Z,97568.59
2017-09-08T23:01:17.606Z,97572.34
2017-09-08T23:03:48.746Z,97569.77
2017-09-08T23:06:20.020Z,97573.48
2017-09-08T23:08:51.561Z,97584.87
2017-09-08T23:11:22.763Z,97578.02
2017-09-08T23:13:53.953Z,97570.20
2017-09-08T23:16:25.691Z,97564.33
2017-09-08T23:18:56.990Z,97571.02
2017-09-08T23:21:28.646Z,97570.59
2017-09-08T23:24:00.458Z,97564.33
2017-09-08T23:26:32.545Z,97558.78
2017-09-08T23:29:04.131Z,97568.19
2017-09-08T23:31:35.879Z,97559.95
2017-09-08T23:34:07.440Z,97542.87
2017-09-08T23:36:39.226Z,97541.14
2017-09-08T23:39:13.877Z,97507.01
2017-09-08T23:41:45.497Z,97545.20
2017-09-08T23:44:17.156Z,97540.81
2017-09-08T23:46:49.268Z,97540.99
2017-09-08T23:49:21.775Z,97532.93
2017-09-08T23:51:54.042Z,97517.75
2017-09-08T23:54:25.834Z,97514.53
2017-09-08T23:56:57.323Z,97512.80
2017-09-08T23:59:29.154Z,97514.92
